createdAt,value
2018-07-20T00:00:52.922Z,71.31
2018-07-20T00:01:53.075Z,71.11
2018-07-20T00:02:53.228Z,71.31
2018-07-20T00:03:53.382Z,71.31
2018-07-20T00:04:53.536Z,70.92
2018-07-20T00:05:53.689Z,70.73
2018-07-20T00:06:53.843Z,70.73
2018-07-20T00:07:53.998Z,70.83
2018-07-20T00:08:54.150Z,70.83
2018-07-20T00:09:54.304Z,70.83
2018-07-20T00:10:54.456Z,70.73
2018-07-20T00:11:54.611Z,70.83
2018-07-20T00:12:54.763Z,70.64
2018-07-20T00:13:54.918Z,71.27
2018-07-20T00:14:55.072Z,71.59
2018-07-20T00:15:55.225Z,70.83
2018-07-20T00:16:55.383Z,71.11
2018-07-20T00:17:55.533Z,71.08
2018-07-20T00:18:55.696Z,71.27
2018-07-20T00:19:55.842Z,71.56
2018-07-20T00:20:55.995Z,71.27
2018-07-20T00:21:56.147Z,71.17
2018-07-20T00:22:56.302Z,71.37
2018-07-20T00:23:56.454Z,72.32
2018-07-20T00:24:56.608Z,72.61
2018-07-20T00:25:56.764Z,73.19
2018-07-20T00:26:56.918Z,72.61
2018-07-20T00:27:57.071Z,72.71
2018-07-20T00:28:57.224Z,72.61
2018-07-20T00:29:57.380Z,72.71
2018-07-20T00:30:57.531Z,72.52
2018-07-20T00:31:57.692Z,73.57
2018-07-20T00:32:57.840Z,73.24
2018-07-20T00:33:57.993Z,73.82
2018-07-20T00:34:58.146Z,73.82
2018-07-20T00:35:58.301Z,73.86
2018-07-20T00:36:58.452Z,74.20
2018-07-20T00:37:58.607Z,74.40
2018-07-20T00:38:58.759Z,74.40
2018-07-20T00:39:58.912Z,74.49
2018-07-20T00:40:59.066Z,74.40
2018-07-20T00:41:59.225Z,74.11
2018-07-20T00:42:59.373Z,74.01
2018-07-20T00:43:59.527Z,73.86
2018-07-20T00:44:59.685Z,73.76
2018-07-20T00:45:59.833Z,73.54
2018-07-20T00:46:59.986Z,74.11
2018-07-20T00:48:00.138Z,74.77
2018-07-20T00:49:00.290Z,74.77
2018-07-20T00:50:00.448Z,74.11
2018-07-20T00:51:00.599Z,74.01
2018-07-20T00:52:00.759Z,73.72
2018-07-20T00:53:00.907Z,74.30
2018-07-20T00:54:01.060Z,74.58
2018-07-20T00:55:01.213Z,74.77
2018-07-20T00:56:01.364Z,75.07
2018-07-20T00:57:01.519Z,75.26
2018-07-20T00:58:01.676Z,75.16
2018-07-20T00:59:01.828Z,75.07
2018-07-20T01:00:01.984Z,74.40
2018-07-20T01:01:02.134Z,75.07
2018-07-20T01:02:02.289Z,75.54
2018-07-20T01:03:02.441Z,75.45
2018-07-20T01:04:02.595Z,75.73
2018-07-20T01:05:02.750Z,75.35
2018-07-20T01:06:02.902Z,75.64
2018-07-20T01:07:03.058Z,75.83
2018-07-20T01:08:03.212Z,76.02
2018-07-20T01:09:03.366Z,75.83
2018-07-20T01:10:03.523Z,76.02
2018-07-20T01:11:03.673Z,76.31
2018-07-20T01:12:03.826Z,75.54
2018-07-20T01:13:03.979Z,76.21
2018-07-20T01:14:04.134Z,76.18
2018-07-20T01:15:04.288Z,76.75
2018-07-20T01:16:04.443Z,76.27
2018-07-20T01:17:04.594Z,77.13
2018-07-20T01:18:04.747Z,77.51
2018-07-20T01:19:04.899Z,77.70
2018-07-20T01:20:05.050Z,77.90
2018-07-20T01:21:05.205Z,78.05
2018-07-20T01:22:05.357Z,78.63
2018-07-20T01:23:05.510Z,78.91
2018-07-20T01:24:05.662Z,78.81
2018-07-20T01:25:05.821Z,78.91
2018-07-20T01:26:05.969Z,79.39
2018-07-20T01:27:06.122Z,79.68
2018-07-20T01:28:06.276Z,79.68
2018-07-20T01:29:06.427Z,80.54
2018-07-20T01:30:06.581Z,81.11
2018-07-20T01:31:06.735Z,81.11
2018-07-20T01:32:06.885Z,80.44
2018-07-20T01:33:07.043Z,80.69
2018-07-20T01:34:07.191Z,81.02
2018-07-20T01:35:07.343Z,81.45
2018-07-20T01:36:07.498Z,81.45
2018-07-20T01:37:07.651Z,81.55
2018-07-20T01:38:07.806Z,81.93
2018-07-20T01:39:07.959Z,82.31
2018-07-20T01:40:08.111Z,82.79
2018-07-20T01:41:08.265Z,82.31
2018-07-20T01:42:08.417Z,81.45
2018-07-20T01:43:08.569Z,81.45
2018-07-20T01:44:08.721Z,81.55
2018-07-20T01:45:08.875Z,82.12
2018-07-20T01:46:09.027Z,80.92
2018-07-20T01:47:09.180Z,81.45
2018-07-20T01:48:09.334Z,81.36
2018-07-20T01:49:09.486Z,80.54
2018-07-20T01:50:09.637Z,80.44
2018-07-20T01:51:09.790Z,80.82
2018-07-20T01:52:09.945Z,81.07
2018-07-20T01:53:10.142Z,81.49
2018-07-20T01:54:10.248Z,81.45
2018-07-20T01:55:10.412Z,80.98
2018-07-20T01:56:10.571Z,81.30
2018-07-20T01:57:10.724Z,80.88
2018-07-20T01:58:10.879Z,80.98
2018-07-20T01:59:11.029Z,81.36
2018-07-20T02:00:11.184Z,81.65
2018-07-20T02:01:11.341Z,81.36
2018-07-20T02:02:11.492Z,81.65
2018-07-20T02:03:11.643Z,82.03
2018-07-20T02:04:11.797Z,82.03
2018-07-20T02:05:11.953Z,82.41
2018-07-20T02:06:12.103Z,81.93
2018-07-20T02:07:12.254Z,81.65
2018-07-20T02:08:12.406Z,82.12
2018-07-20T02:09:12.561Z,82.03
2018-07-20T02:10:12.714Z,82.22
2018-07-20T02:11:12.868Z,82.79
2018-07-20T02:12:13.018Z,81.93
2018-07-20T02:13:13.170Z,82.51
2018-07-20T02:14:13.322Z,81.84
2018-07-20T02:15:13.474Z,82.79
2018-07-20T02:16:13.628Z,82.89
2018-07-20T02:17:13.779Z,82.98
2018-07-20T02:18:13.930Z,82.98
2018-07-20T02:19:14.082Z,82.79
2018-07-20T02:20:14.236Z,83.08
2018-07-20T02:21:14.394Z,82.70
2018-07-20T02:22:14.545Z,82.70
2018-07-20T02:23:14.699Z,83.37
2018-07-20T02:24:14.847Z,83.80
2018-07-20T02:25:15.001Z,83.70
2018-07-20T02:26:15.153Z,83.99
2018-07-20T02:27:15.305Z,84.23
2018-07-20T02:28:15.456Z,84.28
2018-07-20T02:29:15.610Z,84.42
2018-07-20T02:30:15.761Z,83.84
2018-07-20T02:31:15.915Z,83.84
2018-07-20T02:32:16.068Z,83.90
2018-07-20T02:33:16.219Z,84.09
2018-07-20T02:34:16.372Z,84.76
2018-07-20T02:35:16.524Z,84.38
2018-07-20T02:36:16.670Z,84.85
2018-07-20T02:37:16.836Z,85.05
2018-07-20T02:38:16.993Z,85.71
2018-07-20T02:39:17.142Z,86.10
2018-07-20T02:40:17.294Z,86.47
2018-07-20T02:41:17.446Z,86.76
2018-07-20T02:42:17.604Z,86.96
2018-07-20T02:43:17.752Z,86.47
2018-07-20T02:44:17.901Z,86.86
2018-07-20T02:45:18.056Z,86.67
2018-07-20T02:46:18.208Z,87.58
2018-07-20T02:47:18.362Z,87.62
2018-07-20T02:48:18.515Z,87.87
2018-07-20T02:49:18.668Z,88.34
2018-07-20T02:50:18.824Z,88.39
2018-07-20T02:51:18.974Z,88.06
2018-07-20T02:52:19.125Z,89.01
2018-07-20T02:53:19.280Z,88.87
2018-07-20T02:54:19.433Z,88.96
2018-07-20T02:55:19.582Z,88.77
2018-07-20T02:56:19.734Z,89.11
2018-07-20T02:57:19.891Z,89.68
2018-07-20T02:58:20.044Z,89.30
2018-07-20T02:59:20.197Z,89.39
2018-07-20T03:00:20.349Z,89.87
2018-07-20T03:01:20.498Z,89.59
2018-07-20T03:02:20.654Z,89.68
2018-07-20T03:03:20.805Z,89.59
2018-07-20T03:04:20.968Z,89.11
2018-07-20T03:05:21.112Z,89.30
2018-07-20T03:06:21.265Z,90.16
2018-07-20T03:07:21.413Z,90.06
2018-07-20T03:08:21.567Z,90.16
2018-07-20T03:09:21.720Z,90.35
2018-07-20T03:10:21.872Z,90.06
2018-07-20T03:11:22.023Z,90.35
2018-07-20T03:12:22.186Z,90.54
2018-07-20T03:13:22.328Z,90.83
2018-07-20T03:14:22.492Z,91.02
2018-07-20T03:15:22.632Z,91.30
2018-07-20T03:16:22.783Z,90.64
2018-07-20T03:17:22.937Z,90.45
2018-07-20T03:18:23.088Z,90.06
2018-07-20T03:19:23.240Z,89.87
2018-07-20T03:20:23.393Z,90.16
2018-07-20T03:21:23.548Z,89.87
2018-07-20T03:22:23.729Z,90.06
2018-07-20T03:23:23.882Z,89.87
2018-07-20T03:24:24.034Z,90.16
2018-07-20T03:25:24.187Z,89.59
2018-07-20T03:26:24.340Z,89.63
2018-07-20T03:27:24.492Z,89.53
2018-07-20T03:28:24.656Z,89.49
2018-07-20T03:29:24.807Z,90.45
2018-07-20T03:30:24.961Z,90.45
2018-07-20T03:31:25.119Z,90.35
2018-07-20T03:32:25.269Z,91.21
2018-07-20T03:33:25.420Z,90.35
2018-07-20T03:34:25.571Z,90.45
2018-07-20T03:35:25.724Z,89.87
2018-07-20T03:36:25.879Z,90.35
2018-07-20T03:37:26.031Z,91.21
2018-07-20T03:38:26.185Z,90.25
2018-07-20T03:39:26.337Z,91.11
2018-07-20T03:40:26.487Z,91.02
2018-07-20T03:41:26.643Z,90.06
2018-07-20T03:42:26.790Z,90.16
2018-07-20T03:43:26.949Z,89.97
2018-07-20T03:44:27.095Z,89.78
2018-07-20T03:45:27.251Z,90.25
2018-07-20T03:46:27.402Z,90.25
2018-07-20T03:47:27.555Z,90.06
2018-07-20T03:48:27.709Z,90.92
2018-07-20T03:49:27.861Z,90.73
2018-07-20T03:50:28.012Z,90.92
2018-07-20T03:51:28.164Z,90.83
2018-07-20T03:52:28.315Z,91.21
2018-07-20T03:53:28.468Z,91.11
2018-07-20T03:54:28.620Z,90.92
2018-07-20T03:55:28.773Z,90.83
2018-07-20T03:56:28.926Z,90.64
2018-07-20T03:57:29.078Z,91.11
2018-07-20T03:58:29.232Z,91.78
2018-07-20T03:59:29.385Z,90.73
2018-07-20T04:00:29.536Z,90.73
2018-07-20T04:01:29.690Z,90.54
2018-07-20T04:02:29.933Z,90.35
2018-07-20T04:03:29.996Z,90.73
2018-07-20T04:04:30.146Z,89.39
2018-07-20T04:05:30.298Z,90.25
2018-07-20T04:06:30.452Z,89.78
2018-07-20T04:07:30.602Z,89.87
2018-07-20T04:08:30.756Z,90.25
2018-07-20T04:09:30.909Z,90.35
2018-07-20T04:10:31.060Z,90.92
2018-07-20T04:11:31.213Z,90.83
2018-07-20T04:12:31.365Z,89.87
2018-07-20T04:13:31.519Z,89.25
2018-07-20T04:14:31.670Z,88.68
2018-07-20T04:15:31.823Z,88.58
2018-07-20T04:16:31.976Z,88.96
2018-07-20T04:17:32.128Z,88.48
2018-07-20T04:18:32.281Z,88.77
2018-07-20T04:19:32.433Z,88.77
2018-07-20T04:20:32.586Z,89.34
2018-07-20T04:21:32.737Z,89.92
2018-07-20T04:22:32.891Z,89.73
2018-07-20T04:23:33.046Z,89.73
2018-07-20T04:24:33.201Z,89.53
2018-07-20T04:25:33.351Z,90.11
2018-07-20T04:26:33.505Z,89.44
2018-07-20T04:27:33.660Z,89.34
2018-07-20T04:28:33.813Z,88.68
2018-07-20T04:29:33.967Z,89.01
2018-07-20T04:30:34.121Z,88.53
2018-07-20T04:31:34.275Z,88.91
2018-07-20T04:32:34.424Z,88.43
2018-07-20T04:33:34.577Z,88.91
2018-07-20T04:34:34.732Z,89.10
2018-07-20T04:35:34.884Z,89.01
2018-07-20T04:36:35.038Z,88.43
2018-07-20T04:37:35.190Z,88.05
2018-07-20T04:38:35.343Z,88.62
2018-07-20T04:39:35.495Z,88.05
2018-07-20T04:40:35.647Z,87.76
2018-07-20T04:41:35.800Z,87.00
2018-07-20T04:42:35.953Z,86.23
2018-07-20T04:43:36.105Z,87.00
2018-07-20T04:44:36.258Z,86.33
2018-07-20T04:45:36.409Z,86.23
2018-07-20T04:46:36.563Z,85.41
2018-07-20T04:47:36.720Z,85.41
2018-07-20T04:48:36.870Z,84.08
2018-07-20T04:49:37.022Z,84.17
2018-07-20T04:50:37.176Z,84.55
2018-07-20T04:51:37.328Z,84.65
2018-07-20T04:52:37.481Z,84.55
2018-07-20T04:53:37.633Z,84.65
2018-07-20T04:54:37.786Z,84.17
2018-07-20T04:55:37.941Z,83.50
2018-07-20T04:56:38.095Z,83.31
2018-07-20T04:57:38.245Z,83.79
2018-07-20T04:58:38.434Z,83.40
2018-07-20T04:59:38.553Z,82.74
2018-07-20T05:00:38.709Z,83.06
2018-07-20T05:01:38.860Z,82.49
2018-07-20T05:02:39.013Z,82.59
2018-07-20T05:03:39.212Z,81.92
2018-07-20T05:04:39.321Z,82.49
2018-07-20T05:05:39.476Z,82.40
2018-07-20T05:06:39.629Z,81.73
2018-07-20T05:07:39.782Z,81.57
2018-07-20T05:08:39.936Z,81.38
2018-07-20T05:09:40.090Z,81.63
2018-07-20T05:10:40.245Z,82.11
2018-07-20T05:11:40.398Z,82.01
2018-07-20T05:12:40.553Z,82.49
2018-07-20T05:13:40.704Z,82.40
2018-07-20T05:14:40.856Z,82.59
2018-07-20T05:15:41.010Z,82.78
2018-07-20T05:16:41.161Z,82.40
2018-07-20T05:17:41.315Z,82.15
2018-07-20T05:18:41.468Z,82.06
2018-07-20T05:19:41.622Z,81.77
2018-07-20T05:20:41.779Z,81.77
2018-07-20T05:21:41.929Z,82.92
2018-07-20T05:22:42.082Z,81.96
2018-07-20T05:23:42.237Z,81.00
2018-07-20T05:24:42.393Z,81.20
2018-07-20T05:25:42.540Z,81.20
2018-07-20T05:26:42.695Z,81.48
2018-07-20T05:27:42.850Z,80.62
2018-07-20T05:28:43.001Z,79.66
2018-07-20T05:29:43.155Z,80.04
2018-07-20T05:30:43.309Z,79.95
2018-07-20T05:31:43.461Z,80.24
2018-07-20T05:32:43.626Z,80.08
2018-07-20T05:33:43.825Z,79.99
2018-07-20T05:34:43.924Z,78.51
2018-07-20T05:35:44.078Z,78.84
2018-07-20T05:36:44.231Z,78.42
2018-07-20T05:37:44.386Z,78.93
2018-07-20T05:38:44.539Z,79.03
2018-07-20T05:39:44.694Z,78.42
2018-07-20T05:40:44.847Z,78.74
2018-07-20T05:41:45.004Z,78.36
2018-07-20T05:42:45.156Z,77.69
2018-07-20T05:43:45.311Z,77.50
2018-07-20T05:44:45.464Z,77.31
2018-07-20T05:45:45.618Z,77.73
2018-07-20T05:46:45.772Z,77.44
2018-07-20T05:47:45.926Z,76.19
2018-07-20T05:48:46.085Z,76.00
2018-07-20T05:49:46.236Z,75.75
2018-07-20T05:50:46.388Z,75.27
2018-07-20T05:51:46.543Z,74.69
2018-07-20T05:52:46.699Z,74.31
2018-07-20T05:53:46.857Z,74.31
2018-07-20T05:54:47.013Z,73.74
2018-07-20T05:55:47.165Z,74.83
2018-07-20T05:56:47.317Z,73.87
2018-07-20T05:57:47.475Z,73.24
2018-07-20T05:58:47.626Z,73.62
2018-07-20T05:59:47.782Z,73.52
2018-07-20T06:00:47.936Z,72.75
2018-07-20T06:01:48.093Z,72.56
2018-07-20T06:02:48.246Z,71.41
2018-07-20T06:03:48.404Z,70.84
2018-07-20T06:04:48.558Z,70.74
2018-07-20T06:05:48.712Z,70.80
2018-07-20T06:06:48.867Z,70.84
2018-07-20T06:07:49.022Z,70.64
2018-07-20T06:08:49.176Z,69.78
2018-07-20T06:09:49.329Z,70.17
2018-07-20T06:10:49.484Z,69.87
2018-07-20T06:11:49.639Z,69.62
2018-07-20T06:12:49.796Z,69.59
2018-07-20T06:13:49.950Z,69.72
2018-07-20T06:14:50.149Z,69.05
2018-07-20T06:15:50.260Z,69.05
2018-07-20T06:16:50.418Z,68.76
2018-07-20T06:17:50.570Z,68.95
2018-07-20T06:18:50.777Z,68.76
2018-07-20T06:19:50.896Z,69.14
2018-07-20T06:20:51.033Z,68.76
2018-07-20T06:21:51.191Z,68.85
2018-07-20T06:22:51.346Z,69.24
2018-07-20T06:23:51.597Z,68.98
2018-07-20T06:24:51.657Z,68.60
2018-07-20T06:25:51.812Z,68.41
2018-07-20T06:26:51.967Z,68.12
2018-07-20T06:27:52.124Z,66.71
2018-07-20T06:28:52.278Z,66.58
2018-07-20T06:29:52.432Z,67.74
2018-07-20T06:30:52.587Z,66.68
2018-07-20T06:31:52.744Z,66.04
2018-07-20T06:32:52.898Z,65.66
2018-07-20T06:33:53.052Z,65.17
2018-07-20T06:34:53.210Z,65.08
2018-07-20T06:35:53.365Z,64.50
2018-07-20T06:36:53.522Z,64.63
2018-07-20T06:37:53.678Z,64.02
2018-07-20T06:38:54.448Z,63.95
2018-07-20T06:39:53.995Z,64.34
2018-07-20T06:40:54.150Z,62.99
2018-07-20T06:41:54.306Z,62.99
2018-07-20T06:42:54.462Z,62.90
2018-07-20T06:43:54.619Z,63.28
2018-07-20T06:44:54.777Z,63.18
2018-07-20T06:45:54.933Z,63.22
2018-07-20T06:46:55.089Z,63.22
2018-07-20T06:47:55.243Z,63.15
2018-07-20T06:48:55.402Z,61.22
2018-07-20T06:49:55.614Z,60.94
2018-07-20T06:50:55.733Z,60.94
2018-07-20T06:51:55.872Z,60.84
2018-07-20T06:52:56.028Z,60.39
2018-07-20T06:53:56.185Z,58.95
2018-07-20T06:54:56.342Z,59.23
2018-07-20T06:55:56.515Z,59.52
2018-07-20T06:56:56.657Z,59.43
2018-07-20T06:57:56.810Z,59.23
2018-07-20T06:58:56.968Z,58.56
2018-07-20T06:59:57.126Z,57.98
2018-07-20T07:00:57.281Z,57.62
2018-07-20T07:01:57.438Z,57.62
2018-07-20T07:02:57.600Z,57.05
2018-07-20T07:03:57.754Z,57.82
2018-07-20T07:04:57.907Z,57.43
2018-07-20T07:05:58.064Z,58.01
2018-07-20T07:06:58.225Z,57.24
2018-07-20T07:07:58.381Z,56.76
2018-07-20T07:08:58.540Z,56.66
2018-07-20T07:09:58.694Z,57.07
2018-07-20T07:10:58.851Z,57.43
2018-07-20T07:11:59.002Z,56.79
2018-07-20T07:12:59.175Z,56.30
2018-07-20T07:13:59.334Z,56.30
2018-07-20T07:14:59.542Z,56.69
2018-07-20T07:15:59.650Z,57.59
2018-07-20T07:16:59.808Z,55.34
2018-07-20T07:17:59.964Z,55.34
2018-07-20T07:19:00.122Z,55.34
2018-07-20T07:20:00.280Z,53.89
2018-07-20T07:21:00.435Z,54.57
2018-07-20T07:22:00.595Z,54.98
2018-07-20T07:23:00.750Z,55.18
2018-07-20T07:24:00.906Z,54.69
2018-07-20T07:25:01.067Z,53.66
2018-07-20T07:26:01.276Z,53.17
2018-07-20T07:27:01.377Z,53.08
2018-07-20T07:28:01.537Z,53.37
2018-07-20T07:29:01.733Z,52.98
2018-07-20T07:30:01.852Z,53.37
2018-07-20T07:31:02.007Z,52.59
2018-07-20T07:32:02.165Z,52.40
2018-07-20T07:33:02.325Z,52.53
2018-07-20T07:34:02.482Z,51.95
2018-07-20T07:35:02.640Z,52.53
2018-07-20T07:36:02.798Z,51.95
2018-07-20T07:37:02.957Z,51.95
2018-07-20T07:38:03.117Z,52.04
2018-07-20T07:39:03.274Z,51.97
2018-07-20T07:40:03.432Z,51.87
2018-07-20T07:41:03.588Z,51.59
2018-07-20T07:42:03.797Z,51.61
2018-07-20T07:43:03.903Z,51.71
2018-07-20T07:44:04.064Z,51.61
2018-07-20T07:45:04.226Z,51.61
2018-07-20T07:46:04.381Z,51.13
2018-07-20T07:47:04.541Z,50.55
2018-07-20T07:48:04.699Z,50.74
2018-07-20T07:49:04.858Z,50.09
2018-07-20T07:50:05.016Z,49.99
2018-07-20T07:51:05.179Z,50.28
2018-07-20T07:52:05.334Z,49.80
2018-07-20T07:53:05.493Z,48.93
2018-07-20T07:54:05.650Z,50.40
2018-07-20T07:55:05.812Z,49.24
2018-07-20T07:56:05.977Z,49.34
2018-07-20T07:57:06.135Z,49.05
2018-07-20T07:58:06.292Z,49.34
2018-07-20T07:59:06.450Z,48.86
2018-07-20T08:00:06.609Z,48.01
2018-07-20T08:01:06.767Z,48.79
2018-07-20T08:02:06.926Z,48.20
2018-07-20T08:03:07.114Z,48.22
2018-07-20T08:04:07.243Z,47.74
2018-07-20T08:05:07.403Z,48.69
2018-07-20T08:06:07.564Z,48.01
2018-07-20T08:07:07.720Z,47.64
2018-07-20T08:08:07.884Z,47.06
2018-07-20T08:09:08.042Z,46.48
2018-07-20T08:10:08.395Z,47.26
2018-07-20T08:11:08.363Z,46.87
2018-07-20T08:12:08.524Z,46.77
2018-07-20T08:13:08.683Z,47.19
2018-07-20T08:14:08.842Z,46.82
2018-07-20T08:15:09.004Z,46.51
2018-07-20T08:16:09.163Z,46.70
2018-07-20T08:17:09.324Z,46.60
2018-07-20T08:18:09.485Z,45.92
2018-07-20T08:19:09.643Z,45.25
2018-07-20T08:20:09.802Z,45.92
2018-07-20T08:21:09.963Z,45.83
2018-07-20T08:22:10.122Z,46.02
2018-07-20T08:23:10.282Z,45.65
2018-07-20T08:24:10.443Z,45.65
2018-07-20T08:25:10.604Z,45.27
2018-07-20T08:26:10.763Z,45.75
2018-07-20T08:27:10.922Z,45.85
2018-07-20T08:28:11.083Z,45.56
2018-07-20T08:29:11.244Z,46.62
2018-07-20T08:30:11.404Z,45.65
2018-07-20T08:31:11.567Z,44.59
2018-07-20T08:32:11.727Z,44.68
2018-07-20T08:33:11.888Z,45.95
2018-07-20T08:34:12.051Z,45.48
2018-07-20T08:35:12.210Z,45.39
2018-07-20T08:36:12.372Z,45.20
2018-07-20T08:37:12.531Z,45.39
2018-07-20T08:38:12.699Z,44.83
2018-07-20T08:39:12.851Z,45.02
2018-07-20T08:40:13.014Z,44.73
2018-07-20T08:41:13.212Z,43.86
2018-07-20T08:42:13.334Z,43.86
2018-07-20T08:43:13.495Z,43.95
2018-07-20T08:44:13.654Z,43.37
2018-07-20T08:45:13.819Z,44.24
2018-07-20T08:46:13.976Z,44.05
2018-07-20T08:47:14.139Z,42.99
2018-07-20T08:48:14.300Z,42.79
2018-07-20T08:49:14.460Z,43.30
2018-07-20T08:50:14.622Z,43.98
2018-07-20T08:51:14.782Z,43.59
2018-07-20T08:52:14.944Z,41.96
2018-07-20T08:53:15.104Z,42.83
2018-07-20T08:54:15.266Z,43.02
2018-07-20T08:55:15.424Z,43.12
2018-07-20T08:56:15.592Z,42.08
2018-07-20T08:57:15.747Z,41.30
2018-07-20T08:58:15.911Z,41.01
2018-07-20T08:59:16.069Z,40.79
2018-07-20T09:00:16.232Z,41.06
2018-07-20T09:01:16.393Z,41.94
2018-07-20T09:02:16.553Z,41.64
2018-07-20T09:03:16.714Z,41.77
2018-07-20T09:04:16.876Z,41.18
2018-07-20T09:05:17.038Z,40.99
2018-07-20T09:06:17.199Z,39.62
2018-07-20T09:07:17.363Z,39.75
2018-07-20T09:08:17.521Z,39.36
2018-07-20T09:09:17.680Z,39.75
2018-07-20T09:10:17.843Z,40.25
2018-07-20T09:11:18.011Z,39.67
2018-07-20T09:12:18.168Z,36.94
2018-07-20T09:13:18.328Z,35.58
2018-07-20T09:14:18.492Z,35.57
2018-07-20T09:15:18.653Z,36.07
2018-07-20T09:16:18.815Z,36.16
2018-07-20T09:17:18.982Z,37.02
2018-07-20T09:18:19.142Z,37.22
2018-07-20T09:19:19.302Z,36.94
2018-07-20T09:20:19.464Z,36.94
2018-07-20T09:21:19.626Z,37.52
2018-07-20T09:22:19.787Z,37.92
2018-07-20T09:23:19.949Z,38.62
2018-07-20T09:24:20.110Z,37.54
2018-07-20T09:25:20.270Z,36.38
2018-07-20T09:26:20.432Z,37.06
2018-07-20T09:27:20.595Z,36.87
2018-07-20T09:28:20.770Z,36.69
2018-07-20T09:29:20.919Z,36.30
2018-07-20T09:30:21.079Z,34.94
2018-07-20T09:31:21.246Z,34.16
2018-07-20T09:32:21.404Z,33.96
2018-07-20T09:33:21.567Z,33.48
2018-07-20T09:34:21.732Z,33.38
2018-07-20T09:35:21.919Z,32.11
2018-07-20T09:36:22.052Z,31.92
2018-07-20T09:37:22.217Z,32.50
2018-07-20T09:38:22.375Z,32.23
2018-07-20T09:39:22.540Z,32.42
2018-07-20T09:40:22.702Z,32.81
2018-07-20T09:41:22.864Z,33.11
2018-07-20T09:42:23.025Z,33.41
2018-07-20T09:43:23.188Z,33.22
2018-07-20T09:44:23.378Z,33.51
2018-07-20T09:45:23.513Z,32.62
2018-07-20T09:46:23.678Z,33.02
2018-07-20T09:47:23.840Z,32.92
2018-07-20T09:48:24.028Z,33.41
2018-07-20T09:49:24.188Z,33.33
2018-07-20T09:50:24.350Z,32.94
2018-07-20T09:51:24.520Z,32.75
2018-07-20T09:52:24.684Z,33.23
2018-07-20T09:53:24.838Z,32.76
2018-07-20T09:54:25.002Z,32.26
2018-07-20T09:55:25.163Z,33.43
2018-07-20T09:56:25.327Z,33.51
2018-07-20T09:57:25.496Z,33.51
2018-07-20T09:58:25.682Z,33.41
2018-07-20T09:59:25.863Z,32.82
2018-07-20T10:00:26.032Z,33.51
2018-07-20T10:01:26.146Z,33.31
2018-07-20T10:02:26.310Z,33.43
2018-07-20T10:03:26.472Z,32.75
2018-07-20T10:04:26.636Z,32.75
2018-07-20T10:05:26.800Z,31.66
2018-07-20T10:06:26.967Z,33.22
2018-07-20T10:07:27.128Z,32.82
2018-07-20T10:08:27.292Z,32.73
2018-07-20T10:09:27.453Z,32.71
2018-07-20T10:10:27.618Z,33.39
2018-07-20T10:11:27.783Z,33.18
2018-07-20T10:12:27.944Z,33.96
2018-07-20T10:13:28.107Z,33.67
2018-07-20T10:14:28.269Z,33.69
2018-07-20T10:15:28.433Z,33.61
2018-07-20T10:16:28.596Z,32.92
2018-07-20T10:17:28.756Z,33.61
2018-07-20T10:18:28.920Z,32.92
2018-07-20T10:19:29.083Z,33.53
2018-07-20T10:20:29.248Z,32.05
2018-07-20T10:21:29.410Z,31.66
2018-07-20T10:22:29.574Z,32.15
2018-07-20T10:23:29.738Z,31.85
2018-07-20T10:24:29.904Z,31.28
2018-07-20T10:25:30.072Z,30.67
2018-07-20T10:26:30.226Z,31.16
2018-07-20T10:27:30.393Z,31.54
2018-07-20T10:28:30.556Z,32.82
2018-07-20T10:29:30.720Z,32.73
2018-07-20T10:30:30.881Z,31.85
2018-07-20T10:31:31.045Z,31.56
2018-07-20T10:32:31.211Z,32.15
2018-07-20T10:33:31.372Z,32.63
2018-07-20T10:34:31.536Z,31.87
2018-07-20T10:35:31.697Z,31.01
2018-07-20T10:36:31.865Z,31.57
2018-07-20T10:37:32.026Z,30.52
2018-07-20T10:38:32.192Z,31.30
2018-07-20T10:39:32.343Z,31.12
2018-07-20T10:40:32.501Z,29.83
2018-07-20T10:41:32.667Z,30.62
2018-07-20T10:42:32.831Z,30.73
2018-07-20T10:43:32.992Z,32.09
2018-07-20T10:44:33.155Z,32.19
2018-07-20T10:45:33.322Z,31.02
2018-07-20T10:46:33.481Z,30.93
2018-07-20T10:47:33.655Z,30.54
2018-07-20T10:48:33.815Z,30.83
2018-07-20T10:49:33.980Z,30.06
2018-07-20T10:50:34.139Z,29.67
2018-07-20T10:51:34.302Z,29.69
2018-07-20T10:52:34.467Z,29.15
2018-07-20T10:53:34.630Z,29.64
2018-07-20T10:54:34.795Z,30.21
2018-07-20T10:55:34.960Z,30.31
2018-07-20T10:56:35.122Z,30.31
2018-07-20T10:57:35.286Z,30.13
2018-07-20T10:58:35.450Z,30.13
2018-07-20T10:59:35.612Z,29.83
2018-07-20T11:00:35.776Z,30.22
2018-07-20T11:01:35.969Z,29.93
2018-07-20T11:02:36.105Z,29.63
2018-07-20T11:03:36.268Z,29.44
2018-07-20T11:04:36.431Z,30.51
2018-07-20T11:05:36.594Z,29.63
2018-07-20T11:06:36.759Z,29.63
2018-07-20T11:07:36.923Z,30.11
2018-07-20T11:08:37.089Z,30.11
2018-07-20T11:09:37.250Z,29.82
2018-07-20T11:10:37.415Z,29.64
2018-07-20T11:11:37.578Z,29.74
2018-07-20T11:12:37.738Z,29.15
2018-07-20T11:13:37.910Z,28.49
2018-07-20T11:14:38.066Z,28.39
2018-07-20T11:15:38.229Z,28.78
2018-07-20T11:16:38.393Z,29.56
2018-07-20T11:17:38.553Z,28.78
2018-07-20T11:18:38.715Z,29.27
2018-07-20T11:19:38.880Z,28.50
2018-07-20T11:20:39.045Z,28.30
2018-07-20T11:21:39.207Z,28.11
2018-07-20T11:22:39.371Z,28.01
2018-07-20T11:23:39.534Z,27.03
2018-07-20T11:24:39.698Z,26.84
2018-07-20T11:25:39.872Z,26.93
2018-07-20T11:26:40.028Z,26.66
2018-07-20T11:27:40.186Z,26.84
2018-07-20T11:28:40.349Z,26.17
2018-07-20T11:29:40.513Z,26.27
2018-07-20T11:30:40.676Z,26.54
2018-07-20T11:31:40.840Z,26.56
2018-07-20T11:32:41.004Z,26.27
2018-07-20T11:33:41.168Z,26.67
2018-07-20T11:34:41.388Z,27.55
2018-07-20T11:35:41.495Z,26.56
2018-07-20T11:36:41.662Z,26.27
2018-07-20T11:37:41.826Z,26.46
2018-07-20T11:38:41.992Z,27.84
2018-07-20T11:39:42.172Z,26.57
2018-07-20T11:40:42.335Z,26.18
2018-07-20T11:41:42.499Z,25.32
2018-07-20T11:42:42.663Z,25.12
2018-07-20T11:43:42.826Z,25.12
2018-07-20T11:44:42.992Z,26.00
2018-07-20T11:45:43.159Z,26.40
2018-07-20T11:46:43.321Z,26.60
2018-07-20T11:47:43.488Z,25.43
2018-07-20T11:48:43.650Z,26.11
2018-07-20T11:49:43.818Z,25.34
2018-07-20T11:50:43.982Z,25.33
2018-07-20T11:51:44.147Z,25.23
2018-07-20T11:52:44.313Z,25.22
2018-07-20T11:53:44.477Z,25.02
2018-07-20T11:54:44.644Z,25.61
2018-07-20T11:55:44.804Z,26.68
2018-07-20T11:56:44.973Z,25.81
2018-07-20T11:57:45.133Z,26.20
2018-07-20T11:58:45.300Z,26.29
2018-07-20T11:59:45.466Z,25.62
2018-07-20T12:00:45.628Z,25.32
2018-07-20T12:01:45.794Z,25.12
2018-07-20T12:02:45.957Z,24.91
2018-07-20T12:03:46.122Z,24.42
2018-07-20T12:04:46.285Z,25.21
2018-07-20T12:05:46.450Z,25.11
2018-07-20T12:06:46.656Z,24.91
2018-07-20T12:07:46.784Z,25.01
2018-07-20T12:08:46.939Z,24.91
2018-07-20T12:09:47.105Z,25.21
2018-07-20T12:10:47.270Z,25.78
2018-07-20T12:11:47.436Z,26.38
2018-07-20T12:12:47.600Z,26.17
2018-07-20T12:13:47.765Z,25.86
2018-07-20T12:14:47.928Z,26.25
2018-07-20T12:15:48.091Z,26.45
2018-07-20T12:16:48.257Z,26.06
2018-07-20T12:17:48.424Z,26.92
2018-07-20T12:18:48.596Z,26.92
2018-07-20T12:19:48.750Z,26.92
2018-07-20T12:20:48.913Z,26.74
2018-07-20T12:21:49.077Z,27.05
2018-07-20T12:22:49.240Z,27.26
2018-07-20T12:23:49.407Z,26.49
2018-07-20T12:24:49.571Z,26.20
2018-07-20T12:25:49.736Z,25.62
2018-07-20T12:26:49.899Z,26.01
2018-07-20T12:27:50.068Z,26.20
2018-07-20T12:28:50.229Z,26.11
2018-07-20T12:29:50.393Z,25.24
2018-07-20T12:30:50.557Z,24.96
2018-07-20T12:31:50.724Z,24.66
2018-07-20T12:32:50.887Z,25.35
2018-07-20T12:33:51.052Z,24.08
2018-07-20T12:34:51.214Z,23.59
2018-07-20T12:35:51.380Z,24.55
2018-07-20T12:36:51.545Z,24.44
2018-07-20T12:37:51.709Z,24.46
2018-07-20T12:38:51.875Z,24.47
2018-07-20T12:39:52.041Z,24.08
2018-07-20T12:40:52.203Z,24.97
2018-07-20T12:41:52.368Z,23.97
2018-07-20T12:42:52.532Z,24.27
2018-07-20T12:43:52.700Z,24.36
2018-07-20T12:44:52.864Z,24.37
2018-07-20T12:45:53.030Z,24.57
2018-07-20T12:46:53.197Z,23.88
2018-07-20T12:47:53.366Z,24.08
2018-07-20T12:48:53.531Z,24.96
2018-07-20T12:49:53.700Z,25.35
2018-07-20T12:50:53.859Z,26.04
2018-07-20T12:51:54.021Z,24.08
2018-07-20T12:52:54.193Z,24.18
2018-07-20T12:53:54.352Z,24.46
2018-07-20T12:54:54.517Z,24.85